Miyajimamaru — JK5560 — position and weather

sailwx.info

Track history (hours):
 
Tides and Currents Weather Stations Pressure Air Temp Water Temp Dewpoint Dewpoint Depression Visibility Wind Speed Wind Dir Waves Ship Positions

Miyajimamaru

Last reported at 2017-Nov-20 00:29 UTC. Time now 2017-Nov-22 14:50 UTC.
Position N 34°40' E 135°23'.

Length 52 m.

Type: Cargo ship. MMSI: 431401913.

Date/timePositionNaut miles runAvg speedWind from/ knotsBaromVisibWave heightAir tempDewpointWater temp
2017-Nov-20 00:29N 34°40' E 135°23'0 0.7
2017-Nov-19 23:58N 34°40' E 135°22'0 0.0
2017-Nov-19 23:22N 34°40' E 135°22'0 0.0
2017-Nov-19 22:22N 34°40' E 135°22'0 0.0
2017-Nov-19 21:52N 34°40' E 135°22'0 0.0
2017-Nov-19 20:40N 34°40' E 135°22'0 0.0
2017-Nov-19 20:28N 34°40' E 135°22'0 0.0
2017-Nov-19 19:58N 34°40' E 135°22'0 0.1
2017-Nov-19 19:22N 34°40' E 135°22'0 0.1
2017-Nov-19 18:59N 34°40' E 135°22'1 1.8
2017-Nov-19 18:30N 34°39' E 135°22'5 9.7
2017-Nov-19 18:00N 34°37' E 135°16'5 9.8
2017-Nov-19 17:30N 34°36' E 135°11'510.6
2017-Nov-19 17:00N 34°35' E 135°04'  
2017-Nov-15 10:24N 34°36' E 135°04'410.4
2017-Nov-15 09:59N 34°37' E 135°09'510.6
2017-Nov-15 09:30N 34°38' E 135°15'510.3
2017-Nov-15 09:00N 34°40' E 135°21'3 0.5
2017-Nov-15 03:00N 34°42' E 135°24'4 7.8
2017-Nov-15 02:29N 34°38' E 135°23'1 2.2
2017-Nov-15 01:56N 34°38' E 135°25'0 0.0
2017-Nov-15 01:16N 34°38' E 135°25'0 0.0
2017-Nov-15 00:46N 34°38' E 135°25'0 0.0
2017-Nov-15 00:28N 34°38' E 135°25'0 0.9
2017-Nov-14 23:59N 34°38' E 135°24'1 1.6
2017-Nov-14 23:29N 34°37' E 135°23'0 0.0
2017-Nov-14 22:56N 34°37' E 135°23'0 0.0
2017-Nov-14 22:26N 34°37' E 135°23'0 0.0
2017-Nov-14 21:56N 34°37' E 135°23'0 0.0
2017-Nov-14 21:26N 34°37' E 135°23'0 0.9
2017-Nov-14 20:59N 34°37' E 135°23'4 9.2
2017-Nov-14 20:31N 34°36' E 135°18'5 9.4
2017-Nov-14 20:00N 34°35' E 135°12'5 9.8
2017-Nov-14 19:30N 34°35' E 135°06'  
2017-Nov-11 09:45N 34°36' E 135°04'2 9.6
2017-Nov-11 09:29N 34°36' E 135°07'510.0
2017-Nov-11 09:00N 34°36' E 135°12'610.3
2017-Nov-11 08:26N 34°36' E 135°20'  
Track history (hours):
 
Tides and Currents Weather Stations Pressure Air Temp Water Temp Dewpoint Dewpoint Depression Visibility Wind Speed Wind Dir Waves Ship Positions

Miyajimamaru

Last reported at 2017-Nov-20 00:29 UTC. Time now 2017-Nov-22 14:50 UTC.
Position N 34°40' E 135°23'.

Length 52 m.

Type: Cargo ship. MMSI: 431401913.

Date/timePositionNaut miles runAvg speedWind from/ knotsBaromVisibWave heightAir tempDewpointWater temp
2017-Nov-20 00:29N 34°40' E 135°23'0 0.7
2017-Nov-19 23:58N 34°40' E 135°22'0 0.0
2017-Nov-19 23:22N 34°40' E 135°22'0 0.0
2017-Nov-19 22:22N 34°40' E 135°22'0 0.0
2017-Nov-19 21:52N 34°40' E 135°22'0 0.0
2017-Nov-19 20:40N 34°40' E 135°22'0 0.0
2017-Nov-19 20:28N 34°40' E 135°22'0 0.0
2017-Nov-19 19:58N 34°40' E 135°22'0 0.1
2017-Nov-19 19:22N 34°40' E 135°22'0 0.1
2017-Nov-19 18:59N 34°40' E 135°22'1 1.8
2017-Nov-19 18:30N 34°39' E 135°22'5 9.7
2017-Nov-19 18:00N 34°37' E 135°16'5 9.8
2017-Nov-19 17:30N 34°36' E 135°11'510.6
2017-Nov-19 17:00N 34°35' E 135°04'  
2017-Nov-15 10:24N 34°36' E 135°04'410.4
2017-Nov-15 09:59N 34°37' E 135°09'510.6
2017-Nov-15 09:30N 34°38' E 135°15'510.3
2017-Nov-15 09:00N 34°40' E 135°21'3 0.5
2017-Nov-15 03:00N 34°42' E 135°24'4 7.8
2017-Nov-15 02:29N 34°38' E 135°23'1 2.2
2017-Nov-15 01:56N 34°38' E 135°25'0 0.0
2017-Nov-15 01:16N 34°38' E 135°25'0 0.0
2017-Nov-15 00:46N 34°38' E 135°25'0 0.0
2017-Nov-15 00:28N 34°38' E 135°25'0 0.9
2017-Nov-14 23:59N 34°38' E 135°24'1 1.6
2017-Nov-14 23:29N 34°37' E 135°23'0 0.0
2017-Nov-14 22:56N 34°37' E 135°23'0 0.0
2017-Nov-14 22:26N 34°37' E 135°23'0 0.0
2017-Nov-14 21:56N 34°37' E 135°23'0 0.0
2017-Nov-14 21:26N 34°37' E 135°23'0 0.9
2017-Nov-14 20:59N 34°37' E 135°23'4 9.2
2017-Nov-14 20:31N 34°36' E 135°18'5 9.4
2017-Nov-14 20:00N 34°35' E 135°12'5 9.8
2017-Nov-14 19:30N 34°35' E 135°06'  
2017-Nov-11 09:45N 34°36' E 135°04'2 9.6
2017-Nov-11 09:29N 34°36' E 135°07'510.0
2017-Nov-11 09:00N 34°36' E 135°12'610.3
2017-Nov-11 08:26N 34°36' E 135°20'  

Dump ship's entire track history